createdAt,value
2018-01-01T00:00:04.387Z,8.8
2018-01-01T00:05:02.599Z,8.8
2018-01-01T00:10:03.214Z,8.6
2018-01-01T00:15:02.680Z,8.6
2018-01-01T00:20:03.201Z,8.6
2018-01-01T00:25:02.802Z,8.5
2018-01-01T00:30:03.278Z,8.3
2018-01-01T00:35:02.730Z,8.5
2018-01-01T00:40:03.269Z,8.5
2018-01-01T00:45:02.703Z,8.6
2018-01-01T00:50:03.244Z,8.6
2018-01-01T00:55:02.688Z,8.6
2018-01-01T01:00:03.233Z,8.5
2018-01-01T01:05:03.286Z,8.5
2018-01-01T01:10:02.960Z,8.6
2018-01-01T01:15:02.406Z,8.6
2018-01-01T01:20:03.035Z,8.6
2018-01-01T01:25:02.752Z,8.5
2018-01-01T01:30:03.250Z,8.6
2018-01-01T01:35:02.922Z,8.5
2018-01-01T01:45:02.973Z,8.5
2018-01-01T01:50:02.548Z,8.5
2018-01-01T01:55:03.070Z,8.5
2018-01-01T02:00:02.450Z,8.5
2018-01-01T02:05:02.986Z,8.3
2018-01-01T02:10:02.606Z,8.5
2018-01-01T02:15:03.138Z,8.5
2018-01-01T02:20:02.649Z,8.5
2018-01-01T02:25:03.259Z,8.5
2018-01-01T02:30:02.771Z,8.3
2018-01-01T02:35:02.415Z,8.3
2018-01-01T02:40:02.830Z,8.5
2018-01-01T02:45:03.288Z,8.3
2018-01-01T02:50:02.845Z,8.0
2018-01-01T02:55:02.426Z,7.9
2018-01-01T03:00:02.978Z,7.4
2018-01-01T03:05:02.497Z,7.6
2018-01-01T03:10:03.071Z,7.4
2018-01-01T03:15:02.573Z,7.1
2018-01-01T03:20:03.136Z,7.1
2018-01-01T03:25:02.563Z,7.4
2018-01-01T03:30:03.019Z,7.1
2018-01-01T03:35:02.458Z,7.1
2018-01-01T03:40:03.068Z,7.4
2018-01-01T03:45:02.547Z,7.4
2018-01-01T03:50:02.997Z,6.6
2018-01-01T03:55:03.385Z,6.9
2018-01-01T04:00:02.854Z,6.6
2018-01-01T04:05:02.547Z,6.6
2018-01-01T04:10:02.972Z,6.6
2018-01-01T04:15:02.414Z,6.6
2018-01-01T04:20:02.939Z,6.6
2018-01-01T04:25:03.383Z,6.4
2018-01-01T04:30:02.796Z,5.9
2018-01-01T04:35:03.281Z,5.9
2018-01-01T04:40:02.857Z,5.8
2018-01-01T04:45:03.356Z,5.8
2018-01-01T04:50:02.843Z,5.8
2018-01-01T04:55:02.330Z,5.5
2018-01-01T05:00:02.745Z,5.8
2018-01-01T05:05:03.211Z,5.8
2018-01-01T05:10:02.782Z,5.5
2018-01-01T05:15:03.396Z,5.8
2018-01-01T05:20:02.856Z,5.8
2018-01-01T05:25:02.436Z,5.8
2018-01-01T05:30:02.624Z,5.8
2018-01-01T05:35:03.072Z,5.8
2018-01-01T05:40:02.504Z,5.8
2018-01-01T05:45:02.990Z,5.8
2018-01-01T05:50:02.665Z,5.8
2018-01-01T06:00:03.026Z,5.8
2018-01-01T06:05:02.567Z,5.8
2018-01-01T06:10:03.079Z,5.8
2018-01-01T06:15:02.531Z,5.8
2018-01-01T06:20:03.071Z,5.8
2018-01-01T06:25:02.589Z,5.8
2018-01-01T06:30:03.086Z,5.5
2018-01-01T06:35:02.565Z,5.5
2018-01-01T06:40:03.137Z,5.5
2018-01-01T06:45:02.726Z,5.5
2018-01-01T06:50:03.222Z,5.5
2018-01-01T06:55:02.786Z,6.1
2018-01-01T07:00:03.268Z,6.4
2018-01-01T07:05:02.703Z,6.4
2018-01-01T07:10:03.234Z,6.1
2018-01-01T07:15:02.784Z,6.0
2018-01-01T07:20:03.259Z,5.9
2018-01-01T07:25:02.736Z,6.0
2018-01-01T07:30:03.321Z,5.9
2018-01-01T07:35:02.740Z,5.9
2018-01-01T07:40:03.196Z,5.9
2018-01-01T07:45:02.737Z,5.9
2018-01-01T07:50:03.304Z,5.9
2018-01-01T07:55:02.871Z,5.9
2018-01-01T08:00:03.348Z,5.9
2018-01-01T08:05:02.906Z,5.8
2018-01-01T08:10:03.367Z,5.8
2018-01-01T08:15:02.887Z,5.9
2018-01-01T08:20:03.339Z,5.9
2018-01-01T08:25:02.784Z,5.9
2018-01-01T08:30:03.470Z,5.8
2018-01-01T08:35:03.096Z,5.9
2018-01-01T08:40:02.700Z,5.9
2018-01-01T08:45:03.177Z,5.8
2018-01-01T08:50:02.826Z,5.9
2018-01-01T08:55:03.313Z,5.9
2018-01-01T09:00:02.788Z,6.1
2018-01-01T09:05:03.345Z,6.5
2018-01-01T09:10:02.880Z,6.4
2018-01-01T09:15:03.413Z,6.4
2018-01-01T09:20:03.220Z,6.4
2018-01-01T09:25:02.669Z,6.4
2018-01-01T09:30:03.129Z,6.6
2018-01-01T09:35:02.540Z,6.9
2018-01-01T09:40:03.040Z,6.9
2018-01-01T09:45:02.712Z,6.6
2018-01-01T09:50:03.157Z,6.5
2018-01-01T09:55:02.533Z,6.6
2018-01-01T10:00:03.071Z,6.6
2018-01-01T10:05:02.684Z,6.9
2018-01-01T10:10:02.626Z,6.5
2018-01-01T10:15:03.105Z,6.6
2018-01-01T10:20:02.732Z,6.9
2018-01-01T10:25:03.317Z,6.6
2018-01-01T10:30:02.854Z,6.6
2018-01-01T10:35:03.233Z,6.6
2018-01-01T10:40:02.731Z,6.6
2018-01-01T10:45:03.300Z,6.6
2018-01-01T10:50:02.813Z,6.9
2018-01-01T10:55:03.362Z,7.0
2018-01-01T11:00:03.030Z,7.1
2018-01-01T11:05:02.544Z,7.4
2018-01-01T11:10:03.060Z,7.4
2018-01-01T11:15:02.562Z,7.5
2018-01-01T11:20:03.194Z,7.6
2018-01-01T11:25:02.711Z,7.6
2018-01-01T11:30:03.253Z,7.9
2018-01-01T11:35:02.795Z,7.6
2018-01-01T11:40:03.356Z,7.6
2018-01-01T11:45:02.853Z,7.6
2018-01-01T11:50:02.476Z,7.9
2018-01-01T11:55:02.876Z,7.9
2018-01-01T12:00:02.496Z,7.6
2018-01-01T12:05:02.895Z,8.0
2018-01-01T12:10:02.466Z,8.1
2018-01-01T12:15:03.045Z,8.3
2018-01-01T12:20:02.570Z,8.3
2018-01-01T12:25:03.161Z,8.1
2018-01-01T12:30:02.619Z,8.1
2018-01-01T12:35:03.024Z,8.1
2018-01-01T12:40:02.670Z,8.0
2018-01-01T12:45:03.131Z,8.0
2018-01-01T12:50:02.566Z,8.0
2018-01-01T12:55:03.121Z,8.0
2018-01-01T13:00:02.572Z,7.9
2018-01-01T13:05:03.160Z,7.9
2018-01-01T13:10:02.718Z,7.9
2018-01-01T13:15:03.182Z,7.9
2018-01-01T13:20:02.679Z,7.9
2018-01-01T13:25:03.144Z,7.9
2018-01-01T13:30:02.522Z,7.9
2018-01-01T13:35:03.097Z,7.9
2018-01-01T13:40:02.582Z,7.9
2018-01-01T13:45:03.212Z,7.9
2018-01-01T13:50:02.776Z,7.6
2018-01-01T13:55:03.354Z,7.9
2018-01-01T14:00:02.933Z,7.9
2018-01-01T14:05:02.658Z,7.9
2018-01-01T14:10:03.093Z,7.9
2018-01-01T14:15:02.483Z,7.6
2018-01-01T14:20:03.094Z,7.9
2018-01-01T14:25:02.571Z,7.6
2018-01-01T14:30:03.171Z,7.6
2018-01-01T14:35:02.785Z,7.6
2018-01-01T14:40:03.539Z,7.6
2018-01-01T14:45:03.135Z,7.6
2018-01-01T14:50:02.984Z,7.5
2018-01-01T14:55:02.645Z,7.5
2018-01-01T15:00:03.186Z,7.5
2018-01-01T15:05:02.806Z,7.5
2018-01-01T15:10:02.385Z,7.5
2018-01-01T15:15:02.974Z,7.5
2018-01-01T15:20:02.468Z,7.5
2018-01-01T15:25:03.015Z,7.5
2018-01-01T15:30:02.730Z,7.5
2018-01-01T15:35:03.340Z,7.5
2018-01-01T15:40:02.904Z,7.1
2018-01-01T15:45:02.446Z,7.0
2018-01-01T15:50:03.054Z,6.9
2018-01-01T15:55:02.629Z,5.9
2018-01-01T16:00:03.189Z,5.8
2018-01-01T16:05:02.737Z,5.8
2018-01-01T16:10:03.238Z,5.8
2018-01-01T16:15:02.662Z,5.5
2018-01-01T16:20:03.239Z,5.5
2018-01-01T16:25:02.678Z,5.5
2018-01-01T16:30:03.183Z,5.5
2018-01-01T16:35:02.794Z,5.5
2018-01-01T16:40:03.382Z,5.8
2018-01-01T16:45:03.074Z,5.5
2018-01-01T16:50:02.500Z,5.8
2018-01-01T16:55:03.140Z,5.5
2018-01-01T17:00:02.859Z,5.5
2018-01-01T17:05:02.450Z,5.5
2018-01-01T17:10:03.273Z,5.5
2018-01-01T17:15:02.792Z,5.5
2018-01-01T17:20:03.225Z,5.5
2018-01-01T17:25:02.797Z,5.5
2018-01-01T17:30:03.257Z,5.5
2018-01-01T17:35:02.580Z,5.5
2018-01-01T17:40:03.205Z,5.5
2018-01-01T17:45:02.676Z,5.5
2018-01-01T17:50:03.200Z,5.5
2018-01-01T17:55:02.967Z,5.8
2018-01-01T18:00:02.506Z,5.8
2018-01-01T18:05:03.174Z,5.5
2018-01-01T18:10:02.872Z,5.5
2018-01-01T18:15:03.376Z,5.8
2018-01-01T18:20:03.007Z,5.5
2018-01-01T18:25:02.658Z,5.4
2018-01-01T18:30:03.150Z,5.4
2018-01-01T18:35:02.715Z,5.5
2018-01-01T18:40:02.571Z,5.5
2018-01-01T18:45:03.049Z,5.5
2018-01-01T18:50:02.852Z,5.5
2018-01-01T18:55:02.387Z,5.8
2018-01-01T19:00:02.964Z,5.5
2018-01-01T19:05:02.475Z,5.8
2018-01-01T19:10:03.036Z,5.5
2018-01-01T19:15:02.526Z,5.5
2018-01-01T19:20:03.314Z,5.5
2018-01-01T19:25:02.784Z,5.5
2018-01-01T19:30:02.381Z,5.5
2018-01-01T19:35:03.020Z,5.5
2018-01-01T19:40:02.772Z,5.5
2018-01-01T19:45:03.272Z,5.5
2018-01-01T19:50:02.874Z,5.5
2018-01-01T19:55:03.314Z,5.4
2018-01-01T20:00:02.817Z,5.4
2018-01-01T20:05:02.817Z,5.4
2018-01-01T20:10:03.379Z,5.4
2018-01-01T20:15:02.881Z,5.3
2018-01-01T20:20:02.637Z,5.4
2018-01-01T20:25:03.317Z,5.3
2018-01-01T20:30:02.838Z,5.3
2018-01-01T20:35:02.813Z,5.0
2018-01-01T20:40:02.451Z,5.0
2018-01-01T20:45:02.959Z,5.0
2018-01-01T20:50:02.434Z,4.8
2018-01-01T20:55:03.153Z,4.5
2018-01-01T21:00:02.609Z,4.5
2018-01-01T21:05:03.179Z,4.5
2018-01-01T21:10:02.718Z,4.5
2018-01-01T21:15:03.190Z,4.3
2018-01-01T21:20:03.028Z,4.3
2018-01-01T21:25:02.695Z,4.0
2018-01-01T21:30:03.323Z,4.0
2018-01-01T21:35:02.920Z,4.0
2018-01-01T21:40:02.647Z,4.0
2018-01-01T21:45:03.103Z,4.0
2018-01-01T21:50:02.576Z,4.0
2018-01-01T21:55:03.168Z,4.0
2018-01-01T22:00:02.584Z,4.0
2018-01-01T22:05:02.472Z,4.3
2018-01-01T22:10:03.151Z,4.3
2018-01-01T22:15:02.616Z,4.3
2018-01-01T22:20:03.265Z,4.3
2018-01-01T22:25:02.866Z,4.5
2018-01-01T22:30:02.399Z,4.3
2018-01-01T22:35:02.928Z,4.5
2018-01-01T22:40:02.518Z,4.5
2018-01-01T22:45:02.968Z,4.5
2018-01-01T22:50:02.430Z,4.5
2018-01-01T22:55:03.027Z,4.3
2018-01-01T23:00:02.609Z,4.5
2018-01-01T23:05:03.062Z,4.5
2018-01-01T23:10:02.815Z,4.5
2018-01-01T23:15:03.264Z,4.5
2018-01-01T23:20:02.830Z,4.5
2018-01-01T23:25:02.510Z,4.5
2018-01-01T23:30:02.947Z,4.5
2018-01-01T23:35:02.444Z,4.0
2018-01-01T23:40:03.093Z,4.0
2018-01-01T23:45:02.675Z,4.0
2018-01-01T23:50:03.267Z,4.0
2018-01-01T23:55:02.812Z,4.0
